createdAt,value
2023-03-11T00:00:02.454Z,0.70
2023-03-11T00:02:31.940Z,0.63
2023-03-11T00:05:02.467Z,0.61
2023-03-11T00:07:29.053Z,0.78
2023-03-11T00:09:55.493Z,0.66
2023-03-11T00:12:22.170Z,0.63
2023-03-11T00:14:48.619Z,0.42
2023-03-11T00:17:15.083Z,0.21
2023-03-11T00:19:41.523Z,0.17
2023-03-11T00:22:08.331Z,0.05
2023-03-11T00:24:34.924Z,0.24
2023-03-11T00:27:01.406Z,0.22
2023-03-11T00:29:27.909Z,0.14
2023-03-11T00:31:54.700Z,0.37
2023-03-11T00:34:22.980Z,0.59
2023-03-11T00:36:51.778Z,0.75
2023-03-11T00:39:18.327Z,0.26
2023-03-11T00:41:44.848Z,0.30
2023-03-11T00:44:12.564Z,0.48
2023-03-11T00:46:41.280Z,0.67
2023-03-11T00:49:07.810Z,0.65
2023-03-11T00:51:34.781Z,0.62
2023-03-11T00:54:01.363Z,0.59
2023-03-11T00:56:27.994Z,0.34
2023-03-11T00:59:12.135Z,0.33
2023-03-11T01:01:38.869Z,0.35
2023-03-11T01:04:05.550Z,0.30
2023-03-11T01:06:44.524Z,0.59
2023-03-11T01:09:11.804Z,0.30
2023-03-11T01:11:38.262Z,0.10
2023-03-11T01:14:04.714Z,0.20
2023-03-11T01:16:31.257Z,0.37
2023-03-11T01:18:57.683Z,0.62
2023-03-11T01:21:24.216Z,0.32
2023-03-11T01:23:50.675Z,0.48
2023-03-11T01:26:17.152Z,0.54
2023-03-11T01:28:43.791Z,0.56
2023-03-11T01:31:10.860Z,0.38
2023-03-11T01:33:37.367Z,0.61
2023-03-11T01:36:04.203Z,0.62
2023-03-11T01:38:30.672Z,0.59
2023-03-11T01:40:57.149Z,0.42
2023-03-11T01:43:44.763Z,0.65
2023-03-11T01:46:36.003Z,0.63
2023-03-11T01:49:04.274Z,0.73
2023-03-11T01:51:39.017Z,0.69
2023-03-11T01:54:10.683Z,0.71
2023-03-11T01:56:39.216Z,0.48
2023-03-11T01:59:08.121Z,0.46
2023-03-11T02:01:38.565Z,0.62
2023-03-11T02:04:05.040Z,0.39
2023-03-11T02:06:32.545Z,0.24
2023-03-11T02:09:01.115Z,0.17
2023-03-11T02:11:30.657Z,0.22
2023-03-11T02:14:01.657Z,0.12
2023-03-11T02:16:28.253Z,0.23
2023-03-11T02:18:54.759Z,0.19
2023-03-11T02:21:23.769Z,0.14
2023-03-11T02:24:01.868Z,0.06
2023-03-11T02:26:41.214Z,0.05
2023-03-11T02:29:11.310Z,0.19
2023-03-11T02:31:42.892Z,0.26
2023-03-11T02:34:18.766Z,0.41
2023-03-11T02:36:45.646Z,0.27
2023-03-11T02:39:12.219Z,0.30
2023-03-11T02:41:41.693Z,0.29
2023-03-11T02:44:11.766Z,0.27
2023-03-11T02:46:41.377Z,0.16
2023-03-11T02:49:09.382Z,0.06
2023-03-11T02:51:35.790Z,0.07
2023-03-11T02:54:05.545Z,-0.09
2023-03-11T02:56:32.583Z,0.09
2023-03-11T02:58:59.295Z,0.19
2023-03-11T03:01:25.907Z,0.11
2023-03-11T03:03:52.496Z,0.30
2023-03-11T03:06:19.001Z,0.23
2023-03-11T03:08:45.493Z,0.33
2023-03-11T03:11:11.997Z,0.23
2023-03-11T03:13:38.577Z,0.10
2023-03-11T03:16:05.386Z,0.25
2023-03-11T03:18:31.962Z,0.20
2023-03-11T03:20:58.526Z,0.28
2023-03-11T03:23:25.093Z,0.34
2023-03-11T03:25:51.861Z,0.37
2023-03-11T03:28:19.012Z,0.58
2023-03-11T03:30:45.702Z,0.52
2023-03-11T03:33:12.592Z,0.43
2023-03-11T03:35:44.822Z,0.42
2023-03-11T03:38:11.953Z,0.53
2023-03-11T03:40:38.801Z,0.41
2023-03-11T03:43:05.721Z,0.70
2023-03-11T03:45:32.223Z,0.38
2023-03-11T03:47:58.933Z,0.74
2023-03-11T03:50:25.411Z,0.66
2023-03-11T03:52:51.879Z,0.84
2023-03-11T03:55:18.428Z,0.77
2023-03-11T03:57:45.109Z,0.87
2023-03-11T04:00:12.029Z,0.88
2023-03-11T04:02:38.517Z,0.97
2023-03-11T04:05:05.548Z,0.95
2023-03-11T04:07:34.673Z,0.96
2023-03-11T04:10:01.182Z,0.92
2023-03-11T04:12:27.682Z,0.88
2023-03-11T04:14:54.174Z,0.85
2023-03-11T04:17:20.639Z,0.92
2023-03-11T04:19:47.047Z,0.85
2023-03-11T04:22:13.769Z,0.85
2023-03-11T04:24:40.257Z,0.81
2023-03-11T04:27:06.817Z,0.85
2023-03-11T04:29:33.236Z,0.61
2023-03-11T04:31:59.647Z,0.57
2023-03-11T04:34:26.099Z,0.59
2023-03-11T04:36:54.076Z,0.72
2023-03-11T04:39:21.034Z,0.50
2023-03-11T04:41:47.440Z,0.59
2023-03-11T04:44:13.942Z,0.63
2023-03-11T04:46:40.342Z,0.79
2023-03-11T04:49:06.855Z,0.70
2023-03-11T04:51:33.339Z,0.63
2023-03-11T04:53:59.956Z,0.61
2023-03-11T04:56:26.487Z,0.34
2023-03-11T04:58:52.898Z,0.50
2023-03-11T05:01:19.757Z,0.50
2023-03-11T05:03:46.379Z,0.76
2023-03-11T05:06:13.005Z,0.73
2023-03-11T05:08:40.524Z,0.75
2023-03-11T05:11:07.608Z,0.83
2023-03-11T05:13:34.110Z,0.80
2023-03-11T05:16:00.551Z,0.85
2023-03-11T05:18:27.037Z,0.83
2023-03-11T05:20:53.487Z,0.69
2023-03-11T05:23:19.935Z,0.81
2023-03-11T05:25:46.640Z,0.84
2023-03-11T05:28:13.068Z,0.79
2023-03-11T05:30:39.478Z,0.81
2023-03-11T05:33:05.957Z,0.73
2023-03-11T05:35:32.346Z,0.56
2023-03-11T05:37:58.738Z,0.71
2023-03-11T05:40:25.176Z,0.85
2023-03-11T05:42:52.013Z,0.80
2023-03-11T05:45:18.404Z,0.84
2023-03-11T05:47:45.110Z,0.89
2023-03-11T05:50:12.528Z,0.97
2023-03-11T05:52:38.994Z,0.97
2023-03-11T05:58:00.772Z,0.86
2023-03-11T06:00:29.471Z,0.88
2023-03-11T06:02:55.976Z,0.89
2023-03-11T06:05:22.437Z,0.90
2023-03-11T06:07:48.975Z,0.78
2023-03-11T06:10:15.502Z,0.74
2023-03-11T06:12:41.912Z,0.66
2023-03-11T06:15:09.170Z,0.71
2023-03-11T06:17:35.626Z,0.73
2023-03-11T06:20:02.137Z,0.63
2023-03-11T06:22:28.638Z,0.57
2023-03-11T06:24:55.099Z,0.59
2023-03-11T06:27:21.555Z,0.67
2023-03-11T06:29:52.253Z,0.79
2023-03-11T06:32:18.801Z,0.85
2023-03-11T06:34:45.288Z,0.89
2023-03-11T06:37:11.666Z,0.72
2023-03-11T06:39:38.110Z,0.65
2023-03-11T06:42:04.760Z,0.67
2023-03-11T06:44:31.162Z,0.73
2023-03-11T06:46:57.621Z,0.67
2023-03-11T06:49:24.109Z,0.60
2023-03-11T06:51:50.728Z,0.70
2023-03-11T06:54:17.265Z,0.57
2023-03-11T06:56:43.805Z,0.45
2023-03-11T06:59:10.593Z,0.46
2023-03-11T07:01:37.221Z,0.53
2023-03-11T07:04:03.882Z,0.61
2023-03-11T07:06:30.556Z,0.49
2023-03-11T07:08:57.134Z,0.62
2023-03-11T07:11:26.293Z,2.33
2023-03-11T07:13:54.277Z,4.08
2023-03-11T07:16:23.233Z,5.88
2023-03-11T07:18:50.593Z,6.61
2023-03-11T07:21:20.105Z,7.02
2023-03-11T07:23:49.176Z,7.81
2023-03-11T07:26:17.918Z,7.82
2023-03-11T07:28:47.988Z,8.79
2023-03-11T07:31:17.971Z,8.30
2023-03-11T07:33:45.510Z,8.50
2023-03-11T07:36:14.741Z,8.44
2023-03-11T07:38:41.942Z,8.54
2023-03-11T07:41:11.058Z,8.54
2023-03-11T07:43:37.923Z,9.22
2023-03-11T07:46:14.074Z,9.77
2023-03-11T07:48:40.840Z,8.98
2023-03-11T07:51:11.944Z,7.44
2023-03-11T07:53:40.538Z,6.65
2023-03-11T07:56:08.806Z,5.80
2023-03-11T07:58:35.655Z,4.85
2023-03-11T08:01:10.814Z,4.20
2023-03-11T08:03:38.282Z,3.88
2023-03-11T08:06:26.590Z,3.89
2023-03-11T08:08:53.439Z,3.87
2023-03-11T08:11:23.256Z,3.36
2023-03-11T08:13:50.634Z,3.32
2023-03-11T08:16:19.992Z,3.14
2023-03-11T08:18:47.528Z,2.94
2023-03-11T08:21:16.949Z,2.90
2023-03-11T08:23:44.033Z,2.90
2023-03-11T08:26:16.695Z,2.64
2023-03-11T08:28:43.977Z,2.53
2023-03-11T08:31:18.208Z,2.41
2023-03-11T08:33:47.212Z,2.56
2023-03-11T08:36:13.837Z,2.74
2023-03-11T08:38:40.461Z,2.96
2023-03-11T08:41:06.942Z,3.13
2023-03-11T08:43:33.750Z,3.35
2023-03-11T08:46:01.478Z,3.73
2023-03-11T08:48:28.801Z,4.53
2023-03-11T08:50:56.192Z,5.27
2023-03-11T08:53:23.405Z,5.51
2023-03-11T08:55:51.717Z,5.50
2023-03-11T08:58:19.289Z,5.06
2023-03-11T09:00:46.166Z,4.89
2023-03-11T09:03:13.496Z,4.63
2023-03-11T09:05:40.175Z,4.77
2023-03-11T09:08:06.979Z,4.80
2023-03-11T09:10:33.552Z,5.69
2023-03-11T09:12:59.984Z,6.33
2023-03-11T09:15:26.573Z,7.15
2023-03-11T09:17:53.921Z,8.17
2023-03-11T09:20:20.608Z,8.84
2023-03-11T09:22:47.437Z,8.25
2023-03-11T09:25:14.370Z,7.71
2023-03-11T09:27:41.401Z,7.35
2023-03-11T09:30:09.451Z,6.90
2023-03-11T09:32:35.930Z,6.90
2023-03-11T09:35:02.579Z,6.77
2023-03-11T09:37:30.247Z,6.57
2023-03-11T09:39:56.827Z,6.12
2023-03-11T09:42:46.256Z,5.51
2023-03-11T09:45:19.458Z,4.92
2023-03-11T09:48:09.263Z,4.47
2023-03-11T09:50:46.379Z,4.27
2023-03-11T09:53:18.894Z,3.97
2023-03-11T09:55:45.295Z,3.88
2023-03-11T09:58:17.002Z,3.72
2023-03-11T10:00:44.030Z,3.61
2023-03-11T10:03:25.771Z,3.72
2023-03-11T10:05:58.483Z,3.69
2023-03-11T10:08:33.250Z,3.72
2023-03-11T10:11:32.933Z,4.04
2023-03-11T10:14:27.453Z,4.32
2023-03-11T10:17:08.097Z,4.40
2023-03-11T10:19:54.717Z,4.89
2023-03-11T10:22:39.775Z,5.18
2023-03-11T10:25:24.340Z,6.65
2023-03-11T10:28:06.576Z,8.87
2023-03-11T10:30:58.244Z,8.91
2023-03-11T10:33:46.586Z,7.92
2023-03-11T10:36:19.683Z,6.82
2023-03-11T10:38:50.216Z,6.82
2023-03-11T10:41:44.318Z,6.24
2023-03-11T10:44:19.173Z,5.57
2023-03-11T10:46:45.612Z,5.59
2023-03-11T10:49:17.590Z,5.59
2023-03-11T10:51:50.462Z,5.68
2023-03-11T10:54:29.817Z,6.05
2023-03-11T10:57:03.880Z,6.22
2023-03-11T10:59:34.397Z,5.84
2023-03-11T11:02:20.017Z,5.88
2023-03-11T11:04:46.633Z,6.09
2023-03-11T11:07:29.890Z,6.20
2023-03-11T11:10:11.642Z,6.68
2023-03-11T11:12:50.325Z,6.86
2023-03-11T11:15:29.412Z,6.97
2023-03-11T11:17:58.970Z,9.09
2023-03-11T11:20:27.450Z,11.42
2023-03-11T11:22:59.237Z,10.89
2023-03-11T11:25:30.429Z,10.59
2023-03-11T11:28:00.587Z,10.54
2023-03-11T11:30:28.940Z,11.94
2023-03-11T11:32:55.792Z,13.78
2023-03-11T11:35:25.472Z,13.46
2023-03-11T11:37:55.683Z,12.02
2023-03-11T11:40:31.007Z,10.36
2023-03-11T11:43:03.554Z,9.22
2023-03-11T11:45:37.772Z,8.49
2023-03-11T11:48:20.247Z,7.76
2023-03-11T11:50:52.624Z,7.51
2023-03-11T11:53:51.265Z,7.11
2023-03-11T11:56:17.904Z,6.66
2023-03-11T11:58:44.406Z,6.33
2023-03-11T12:01:15.408Z,6.22
2023-03-11T12:04:05.181Z,5.97
2023-03-11T12:06:40.070Z,5.85
2023-03-11T12:09:24.143Z,5.61
2023-03-11T12:12:01.342Z,5.32
2023-03-11T12:14:43.180Z,5.65
2023-03-11T12:17:13.882Z,6.03
2023-03-11T12:19:58.197Z,6.41
2023-03-11T12:22:51.068Z,6.86
2023-03-11T12:25:30.144Z,7.66
2023-03-11T12:28:14.770Z,8.97
2023-03-11T12:30:46.319Z,10.01
2023-03-11T12:33:18.837Z,9.82
2023-03-11T12:35:58.157Z,9.42
2023-03-11T12:38:27.646Z,9.08
2023-03-11T12:41:23.040Z,8.72
2023-03-11T12:43:52.425Z,10.93
2023-03-11T12:46:19.454Z,13.21
2023-03-11T12:49:07.737Z,13.73
2023-03-11T12:51:39.185Z,12.48
2023-03-11T12:54:32.187Z,10.68
2023-03-11T12:57:03.524Z,9.58
2023-03-11T12:59:57.393Z,9.26
2023-03-11T13:02:47.785Z,8.97
2023-03-11T13:05:33.115Z,8.29
2023-03-11T13:08:21.778Z,8.30
2023-03-11T13:10:56.326Z,8.00
2023-03-11T13:13:39.466Z,6.68
2023-03-11T13:16:14.922Z,7.49
2023-03-11T13:18:46.516Z,7.87
2023-03-11T13:21:28.388Z,7.86
2023-03-11T13:24:21.410Z,7.78
2023-03-11T13:27:00.575Z,7.25
2023-03-11T13:29:31.348Z,7.07
2023-03-11T13:32:28.233Z,7.23
2023-03-11T13:35:10.216Z,7.61
2023-03-11T13:37:50.986Z,7.70
2023-03-11T13:40:36.486Z,7.08
2023-03-11T13:43:05.654Z,6.80
2023-03-11T13:45:35.638Z,6.68
2023-03-11T13:48:16.481Z,6.52
2023-03-11T13:50:51.051Z,6.31
2023-03-11T13:53:31.079Z,6.26
2023-03-11T13:55:57.738Z,6.42
2023-03-11T13:58:26.872Z,6.21
2023-03-11T14:00:58.804Z,6.25
2023-03-11T14:03:28.295Z,6.17
2023-03-11T14:06:08.088Z,6.08
2023-03-11T14:08:38.709Z,6.07
2023-03-11T14:11:08.233Z,6.21
2023-03-11T14:13:49.799Z,6.36
2023-03-11T14:16:18.851Z,6.64
2023-03-11T14:18:48.411Z,6.50
2023-03-11T14:21:18.290Z,6.47
2023-03-11T14:23:48.234Z,6.58
2023-03-11T14:26:20.322Z,6.72
2023-03-11T14:28:51.009Z,6.71
2023-03-11T14:31:38.696Z,6.68
2023-03-11T14:34:15.247Z,6.66
2023-03-11T14:36:42.329Z,6.78
2023-03-11T14:39:30.041Z,6.67
2023-03-11T14:42:08.138Z,7.20
2023-03-11T14:44:40.980Z,7.49
2023-03-11T14:47:26.947Z,7.60
2023-03-11T14:49:54.581Z,6.70
2023-03-11T14:52:32.601Z,6.96
2023-03-11T14:55:00.794Z,7.28
2023-03-11T14:57:39.916Z,7.18
2023-03-11T15:00:15.900Z,6.91
2023-03-11T15:03:00.970Z,6.25
2023-03-11T15:05:46.159Z,6.21
2023-03-11T15:08:12.898Z,6.16
2023-03-11T15:10:39.526Z,6.13
2023-03-11T15:13:14.859Z,5.68
2023-03-11T15:15:41.981Z,5.95
2023-03-11T15:18:22.342Z,6.11
2023-03-11T15:21:05.775Z,6.42
2023-03-11T15:23:35.130Z,6.66
2023-03-11T15:26:01.938Z,6.74
2023-03-11T15:28:33.615Z,6.19
2023-03-11T15:31:31.334Z,6.09
2023-03-11T15:34:19.279Z,6.28
2023-03-11T15:36:48.487Z,5.95
2023-03-11T15:39:31.224Z,6.44
2023-03-11T15:42:02.290Z,6.53
2023-03-11T15:44:42.282Z,6.64
2023-03-11T15:47:15.063Z,6.71
2023-03-11T15:49:42.292Z,6.77
2023-03-11T15:52:09.290Z,6.72
2023-03-11T15:54:36.293Z,6.45
2023-03-11T15:57:06.903Z,6.39
2023-03-11T15:59:34.765Z,6.25
2023-03-11T16:02:01.261Z,5.91
2023-03-11T16:04:27.819Z,5.51
2023-03-11T16:07:07.139Z,5.34
2023-03-11T16:09:34.534Z,5.11
2023-03-11T16:12:02.047Z,5.05
2023-03-11T16:14:28.551Z,5.00
2023-03-11T16:16:55.061Z,4.96
2023-03-11T16:19:21.539Z,4.80
2023-03-11T16:21:50.184Z,4.75
2023-03-11T16:24:20.903Z,4.94
2023-03-11T16:26:47.577Z,5.02
2023-03-11T16:29:19.484Z,5.23
2023-03-11T16:31:46.645Z,5.31
2023-03-11T16:34:13.242Z,5.30
2023-03-11T16:36:42.225Z,5.37
2023-03-11T16:39:09.291Z,5.15
2023-03-11T16:41:45.304Z,4.93
2023-03-11T16:44:11.963Z,4.69
2023-03-11T16:46:38.765Z,4.45
2023-03-11T16:49:05.706Z,4.17
2023-03-11T16:51:32.536Z,3.91
2023-03-11T16:53:59.283Z,3.63
2023-03-11T16:56:25.816Z,3.50
2023-03-11T16:58:52.261Z,3.45
2023-03-11T17:01:19.204Z,3.44
2023-03-11T17:03:48.537Z,3.41
2023-03-11T17:06:15.722Z,3.20
2023-03-11T17:08:42.352Z,3.08
2023-03-11T17:11:16.744Z,3.11
2023-03-11T17:13:43.741Z,3.05
2023-03-11T17:16:10.241Z,3.04
2023-03-11T17:18:36.742Z,2.94
2023-03-11T17:21:09.166Z,2.79
2023-03-11T17:23:35.702Z,2.67
2023-03-11T17:26:02.604Z,2.50
2023-03-11T17:28:29.582Z,2.40
2023-03-11T17:30:56.056Z,2.28
2023-03-11T17:33:22.460Z,2.16
2023-03-11T17:35:48.873Z,2.11
2023-03-11T17:38:16.601Z,2.12
2023-03-11T17:40:43.310Z,1.78
2023-03-11T17:43:09.862Z,1.58
2023-03-11T17:45:38.616Z,1.41
2023-03-11T17:48:05.208Z,1.31
2023-03-11T17:50:31.620Z,1.22
2023-03-11T17:52:58.210Z,1.03
2023-03-11T17:55:24.846Z,0.88
2023-03-11T17:57:52.389Z,0.80
2023-03-11T18:00:19.263Z,0.66
2023-03-11T18:02:45.731Z,0.60
2023-03-11T18:05:12.209Z,0.38
2023-03-11T18:07:41.603Z,0.24
2023-03-11T18:10:09.238Z,0.24
2023-03-11T18:12:36.075Z,0.24
2023-03-11T18:15:06.024Z,0.25
2023-03-11T18:17:34.888Z,0.22
2023-03-11T18:20:01.729Z,0.16
2023-03-11T18:22:28.193Z,0.06
2023-03-11T18:24:54.807Z,-0.09
2023-03-11T18:27:21.274Z,-0.19
2023-03-11T18:29:47.707Z,-0.28
2023-03-11T18:32:14.227Z,-0.19
2023-03-11T18:34:41.677Z,-0.24
2023-03-11T18:37:08.457Z,-0.31
2023-03-11T18:39:35.314Z,-0.40
2023-03-11T18:42:02.884Z,-0.48
2023-03-11T18:44:29.375Z,-0.62
2023-03-11T18:46:55.910Z,-0.73
2023-03-11T18:49:22.340Z,-0.91
2023-03-11T18:51:48.777Z,-0.84
2023-03-11T18:54:15.209Z,-0.75
2023-03-11T18:56:41.695Z,-0.90
2023-03-11T18:59:12.050Z,-1.01
2023-03-11T19:01:38.702Z,-1.06
2023-03-11T19:04:05.327Z,-1.17
2023-03-11T19:06:31.885Z,-1.35
2023-03-11T19:08:58.526Z,-1.46
2023-03-11T19:11:25.254Z,-1.39
2023-03-11T19:13:52.780Z,-1.34
2023-03-11T19:16:23.150Z,-1.41
2023-03-11T19:18:50.333Z,-1.37
2023-03-11T19:21:17.459Z,-1.42
2023-03-11T19:23:44.743Z,-1.49
2023-03-11T19:26:11.879Z,-1.58
2023-03-11T19:28:38.473Z,-1.63
2023-03-11T19:31:05.669Z,-1.59
2023-03-11T19:33:32.552Z,-1.53
2023-03-11T19:36:01.064Z,-1.40
2023-03-11T19:38:28.818Z,-1.53
2023-03-11T19:41:07.095Z,-1.54
2023-03-11T19:43:35.612Z,-1.53
2023-03-11T19:46:03.741Z,-1.54
2023-03-11T19:48:30.606Z,-1.66
2023-03-11T19:50:58.551Z,-1.73
2023-03-11T19:53:26.437Z,-1.78
2023-03-11T19:55:55.623Z,-1.78
2023-03-11T19:58:23.864Z,-1.83
2023-03-11T20:00:51.418Z,-1.86
2023-03-11T20:03:19.518Z,-1.82
2023-03-11T20:05:47.288Z,-1.87
2023-03-11T20:08:16.864Z,-1.88
2023-03-11T20:10:46.361Z,-1.92
2023-03-11T20:13:14.771Z,-1.99
2023-03-11T20:15:41.442Z,-2.09
2023-03-11T20:18:08.075Z,-2.14
2023-03-11T20:20:37.447Z,-2.18
2023-03-11T20:23:04.059Z,-2.23
2023-03-11T20:25:34.754Z,-2.22
2023-03-11T20:28:01.558Z,-2.22
2023-03-11T20:30:28.721Z,-2.22
2023-03-11T20:32:55.538Z,-2.26
2023-03-11T20:35:22.799Z,-2.24
2023-03-11T20:37:49.306Z,-2.60
2023-03-11T20:40:17.104Z,-2.67
2023-03-11T20:42:46.793Z,-2.70
2023-03-11T20:45:21.622Z,-2.64
2023-03-11T20:47:49.919Z,-2.52
2023-03-11T20:50:16.802Z,-2.44
2023-03-11T20:52:43.478Z,-2.44
2023-03-11T20:55:10.836Z,-2.58
2023-03-11T20:57:38.676Z,-2.62
2023-03-11T21:00:11.422Z,-2.55
2023-03-11T21:02:44.700Z,-2.56
2023-03-11T21:05:12.510Z,-2.59
2023-03-11T21:07:39.696Z,-2.65
2023-03-11T21:10:09.808Z,-2.68
2023-03-11T21:12:36.366Z,-2.64
2023-03-11T21:15:07.216Z,-2.71
2023-03-11T21:17:37.117Z,-2.76
2023-03-11T21:20:09.215Z,-2.85
2023-03-11T21:22:36.167Z,-2.85
2023-03-11T21:25:08.506Z,-2.89
2023-03-11T21:27:35.275Z,-2.89
2023-03-11T21:30:05.080Z,-2.83
2023-03-11T21:32:31.933Z,-2.93
2023-03-11T21:34:59.861Z,-2.93
2023-03-11T21:37:27.834Z,-2.97
2023-03-11T21:39:57.820Z,-3.08
2023-03-11T21:45:08.358Z,-3.11
2023-03-11T21:47:37.914Z,-3.16
2023-03-11T21:50:05.338Z,-2.96
2023-03-11T21:52:31.795Z,-2.78
2023-03-11T21:55:02.992Z,-2.97
2023-03-11T21:57:29.567Z,-3.25
2023-03-11T22:00:07.644Z,-3.37
2023-03-11T22:02:40.134Z,-3.33
2023-03-11T22:05:14.130Z,-3.19
2023-03-11T22:07:40.637Z,-3.12
2023-03-11T22:10:08.326Z,-3.31
2023-03-11T22:12:34.822Z,-3.26
2023-03-11T22:15:04.067Z,-3.32
2023-03-11T22:17:30.674Z,-3.40
2023-03-11T22:19:59.879Z,-3.28
2023-03-11T22:22:26.492Z,-3.22
2023-03-11T22:24:55.409Z,-3.17
2023-03-11T22:27:21.873Z,-3.21
2023-03-11T22:29:51.466Z,-3.29
2023-03-11T22:32:17.993Z,-3.31
2023-03-11T22:34:44.632Z,-3.35
2023-03-11T22:37:16.653Z,-3.38
2023-03-11T22:39:45.601Z,-3.38
2023-03-11T22:42:12.246Z,-3.48
2023-03-11T22:44:41.847Z,-3.46
2023-03-11T22:47:10.386Z,-3.52
2023-03-11T22:49:38.453Z,-3.49
2023-03-11T22:52:05.232Z,-3.70
2023-03-11T22:54:31.757Z,-3.65
2023-03-11T22:56:58.241Z,-3.61
2023-03-11T22:59:30.724Z,-3.51
2023-03-11T23:01:57.603Z,-3.51
2023-03-11T23:04:26.696Z,-3.42
2023-03-11T23:06:57.983Z,-3.36
2023-03-11T23:09:24.451Z,-3.31
2023-03-11T23:11:52.635Z,-3.28
2023-03-11T23:14:22.003Z,-3.37
2023-03-11T23:16:52.185Z,-3.41
2023-03-11T23:19:18.677Z,-3.34
2023-03-11T23:21:45.149Z,-3.32
2023-03-11T23:24:11.703Z,-3.24
2023-03-11T23:26:38.235Z,-3.30
2023-03-11T23:29:05.181Z,-3.33
2023-03-11T23:31:31.942Z,-3.38
2023-03-11T23:33:58.845Z,-3.39
2023-03-11T23:36:30.823Z,-3.44
2023-03-11T23:38:57.658Z,-3.69
2023-03-11T23:41:24.141Z,-3.81
2023-03-11T23:43:51.025Z,-3.77
2023-03-11T23:46:17.702Z,-3.75
2023-03-11T23:48:44.255Z,-3.69
2023-03-11T23:51:11.038Z,-3.69
2023-03-11T23:53:40.690Z,-3.56
2023-03-11T23:56:18.851Z,-3.47
2023-03-11T23:58:46.479Z,-3.43
